Time;durP1;ratioP1;P1;durP2;ratioP2;P2;SDS_P1;SDS_P2;PMS_P1;PMS_P2;Temp;Humidity;BMP_temperature;BMP_pressure;BME280_temperature;BME280_humidity;BME280_pressure;Samples;Min_cycle;Max_cycle;Signal;HPM_P1;HPM_P2
2021/09/16 00:01:35;;;;;;;2.30;1.65;;;17.90;99.90;;;;;;5053978;28;20025;-66
2021/09/16 00:04:00;;;;;;;1.50;1.20;;;17.90;99.90;;;;;;5052780;28;20041;-67
2021/09/16 00:06:26;;;;;;;1.30;1.20;;;17.90;99.90;;;;;;5052302;28;20025;-66
2021/09/16 00:08:52;;;;;;;2.28;1.10;;;17.90;99.90;;;;;;5052274;28;20029;-66
2021/09/16 00:11:18;;;;;;;1.55;1.30;;;17.90;99.90;;;;;;5043806;28;20120;-67
2021/09/16 00:13:44;;;;;;;1.83;1.50;;;17.90;99.90;;;;;;5034884;28;20037;-67
2021/09/16 00:16:10;;;;;;;1.65;1.35;;;17.90;99.90;;;;;;5037880;28;20382;-66
2021/09/16 00:18:36;;;;;;;2.80;1.30;;;17.90;99.90;;;;;;5050340;28;20100;-67
2021/09/16 00:21:01;;;;;;;1.50;1.10;;;17.90;99.90;;;;;;5032095;28;20026;-67
2021/09/16 00:23:27;;;;;;;5.38;1.20;;;17.90;99.90;;;;;;5033012;28;20029;-66
2021/09/16 00:25:53;;;;;;;1.10;1.00;;;18.00;99.90;;;;;;5030369;28;20029;-67
2021/09/16 00:28:19;;;;;;;1.10;0.75;;;18.00;99.90;;;;;;5032698;28;20029;-67
2021/09/16 00:30:44;;;;;;;1.00;0.80;;;18.10;99.90;;;;;;5049622;28;20471;-67
2021/09/16 00:33:10;;;;;;;1.42;1.13;;;18.20;99.90;;;;;;5050647;28;20031;-67
2021/09/16 00:35:36;;;;;;;1.65;1.30;;;18.20;99.90;;;;;;5051869;28;20067;-66
2021/09/16 00:38:01;;;;;;;1.17;1.05;;;18.20;99.90;;;;;;5050059;28;20041;-66
2021/09/16 00:40:27;;;;;;;2.42;0.98;;;18.20;99.90;;;;;;5040697;28;20498;-66
2021/09/16 00:42:53;;;;;;;1.15;1.15;;;18.30;99.90;;;;;;5032196;28;20389;-66
2021/09/16 00:45:19;;;;;;;1.73;1.10;;;18.30;99.90;;;;;;5048730;28;20055;-66
2021/09/16 00:47:47;;;;;;;2.63;1.10;;;18.30;99.90;;;;;;5053214;28;20025;-66
2021/09/16 00:50:15;;;;;;;0.90;0.90;;;18.30;99.90;;;;;;5041486;28;20033;-66
2021/09/16 00:52:41;;;;;;;1.98;0.95;;;18.30;99.90;;;;;;5050594;28;20398;-66
2021/09/16 00:55:10;;;;;;;2.60;0.82;;;18.30;99.90;;;;;;5051968;28;20162;-66
2021/09/16 00:57:39;;;;;;;0.70;0.70;;;18.30;99.90;;;;;;5047080;28;20397;-66
2021/09/16 01:00:08;;;;;;;1.60;0.90;;;18.30;99.90;;;;;;5039106;28;20502;-66
2021/09/16 01:02:34;;;;;;;1.75;1.17;;;18.30;99.90;;;;;;5051244;28;20033;-66
2021/09/16 01:05:00;;;;;;;2.03;1.10;;;18.30;99.90;;;;;;5051560;28;20033;-66
2021/09/16 01:07:25;;;;;;;1.52;1.02;;;18.40;99.90;;;;;;5052086;28;20078;-66
2021/09/16 01:09:51;;;;;;;1.23;0.80;;;18.30;99.90;;;;;;5041017;28;20418;-66
2021/09/16 01:12:17;;;;;;;1.65;0.73;;;18.30;99.90;;;;;;5041531;28;20036;-66
2021/09/16 01:14:44;;;;;;;2.17;0.73;;;18.40;99.90;;;;;;5052603;28;20029;-66
2021/09/16 01:17:10;;;;;;;2.17;0.88;;;18.30;99.90;;;;;;5051334;28;20620;-66
2021/09/16 01:19:35;;;;;;;4.05;1.00;;;18.40;99.90;;;;;;5041784;28;20033;-66
2021/09/16 01:22:01;;;;;;;1.17;0.70;;;18.40;99.90;;;;;;5050357;28;20029;-65
2021/09/16 01:24:27;;;;;;;2.10;0.82;;;18.40;99.90;;;;;;5052304;28;20033;-65
2021/09/16 01:26:52;;;;;;;1.02;0.80;;;18.50;99.90;;;;;;5050576;28;20078;-65
2021/09/16 01:29:18;;;;;;;1.60;1.00;;;18.50;99.90;;;;;;5052339;28;20033;-66
2021/09/16 01:31:49;;;;;;;0.82;0.55;;;18.50;99.90;;;;;;5051943;28;20037;-66
2021/09/16 01:34:17;;;;;;;1.73;1.00;;;18.60;99.90;;;;;;5051720;28;20033;-65
2021/09/16 01:36:44;;;;;;;2.17;1.00;;;18.60;99.90;;;;;;5038736;28;20029;-66
2021/09/16 01:39:15;;;;;;;1.63;0.80;;;18.60;99.90;;;;;;5031650;28;20211;-65
2021/09/16 01:41:41;;;;;;;2.75;0.93;;;18.60;99.90;;;;;;5032890;28;20040;-66
2021/09/16 01:44:06;;;;;;;1.67;0.80;;;18.50;99.90;;;;;;5031496;28;20390;-66
2021/09/16 01:46:33;;;;;;;1.42;0.85;;;18.40;99.90;;;;;;5041676;28;20032;-66
2021/09/16 01:49:00;;;;;;;2.15;1.08;;;18.30;99.90;;;;;;5051249;28;20056;-66
2021/09/16 01:51:26;;;;;;;1.73;0.70;;;18.30;99.90;;;;;;5051360;28;20447;-66
2021/09/16 01:53:52;;;;;;;0.77;0.73;;;18.10;99.90;;;;;;5045832;28;20033;-66
2021/09/16 01:56:18;;;;;;;3.60;1.00;;;18.00;99.90;;;;;;5044026;28;20095;-66
2021/09/16 01:58:44;;;;;;;0.70;0.70;;;17.90;99.90;;;;;;5043594;28;20108;-66
2021/09/16 02:01:09;;;;;;;2.40;1.20;;;17.90;99.90;;;;;;5030991;28;20656;-66
2021/09/16 02:03:35;;;;;;;1.42;0.77;;;17.80;99.90;;;;;;5031721;28;20031;-66
2021/09/16 02:06:01;;;;;;;2.92;1.10;;;17.80;99.90;;;;;;5035484;28;20028;-66
2021/09/16 02:08:27;;;;;;;0.80;0.80;;;17.70;99.90;;;;;;5050706;28;20025;-66
2021/09/16 02:10:52;;;;;;;2.20;1.30;;;17.70;99.90;;;;;;5045215;28;20022;-66
2021/09/16 02:13:18;;;;;;;1.17;0.93;;;17.70;99.90;;;;;;5031624;28;20030;-66
2021/09/16 02:15:44;;;;;;;5.45;1.13;;;17.70;99.90;;;;;;5033550;28;20047;-66
2021/09/16 02:18:10;;;;;;;2.08;1.08;;;17.70;99.90;;;;;;5050584;28;20035;-66
2021/09/16 02:20:35;;;;;;;2.63;1.30;;;17.70;99.90;;;;;;5051235;28;20040;-66
2021/09/16 02:23:20;;;;;;;0.90;0.90;;;17.70;99.90;;;;;;5039730;28;20029;-65
2021/09/16 02:25:45;;;;;;;3.28;1.77;;;17.70;99.90;;;;;;5034370;28;20471;-66
2021/09/16 02:28:11;;;;;;;5.28;1.98;;;17.70;99.90;;;;;;5050299;28;20025;-66
2021/09/16 02:30:36;;;;;;;2.25;1.67;;;17.70;99.90;;;;;;5048354;28;20033;-66
2021/09/16 02:33:04;;;;;;;2.88;1.30;;;17.60;99.90;;;;;;5030580;28;20032;-66
2021/09/16 02:35:31;;;;;;;2.47;1.38;;;17.60;99.90;;;;;;5032651;28;20030;-66
2021/09/16 02:37:56;;;;;;;3.58;2.10;;;17.60;99.90;;;;;;5030769;28;20030;-66
2021/09/16 02:40:22;;;;;;;2.50;1.48;;;17.60;99.90;;;;;;5036362;28;20052;-66
2021/09/16 02:42:48;;;;;;;3.30;1.80;;;17.60;99.90;;;;;;5030893;28;20049;-66
2021/09/16 02:45:13;;;;;;;4.00;1.90;;;17.60;99.90;;;;;;5029396;28;20040;-65
2021/09/16 02:47:39;;;;;;;1.95;1.65;;;17.60;99.90;;;;;;5034643;28;20378;-65
2021/09/16 02:50:05;;;;;;;3.33;2.15;;;17.50;99.90;;;;;;5030638;28;20055;-66
2021/09/16 02:52:31;;;;;;;3.05;1.70;;;17.50;99.90;;;;;;5032011;28;20053;-66
2021/09/16 02:54:56;;;;;;;1.92;1.50;;;17.50;99.90;;;;;;5036455;28;20036;-66
2021/09/16 02:57:22;;;;;;;2.17;1.42;;;17.50;99.90;;;;;;5051498;28;20057;-66
2021/09/16 02:59:47;;;;;;;2.22;1.38;;;17.50;99.90;;;;;;5054786;28;20075;-66
2021/09/16 03:02:13;;;;;;;4.03;1.73;;;17.50;99.90;;;;;;5050194;28;20013;-66
2021/09/16 03:04:39;;;;;;;4.13;1.98;;;17.50;99.90;;;;;;5054904;28;20458;-66
2021/09/16 03:07:04;;;;;;;4.72;2.20;;;17.60;99.90;;;;;;5041902;28;20025;-66
2021/09/16 03:09:30;;;;;;;2.75;2.05;;;17.60;99.90;;;;;;5034848;28;20056;-66
2021/09/16 03:11:56;;;;;;;3.50;1.98;;;17.60;99.90;;;;;;5049118;28;20029;-65
2021/09/16 03:14:21;;;;;;;2.97;1.60;;;17.50;99.90;;;;;;5054986;28;20040;-66
2021/09/16 03:16:47;;;;;;;4.35;1.90;;;17.60;99.90;;;;;;5045544;28;20033;-66
2021/09/16 03:19:13;;;;;;;3.53;1.70;;;17.50;99.90;;;;;;5041535;28;20476;-65
2021/09/16 03:21:38;;;;;;;2.28;1.90;;;17.50;99.90;;;;;;5054193;28;20025;-66
2021/09/16 03:24:04;;;;;;;2.97;1.88;;;17.50;99.90;;;;;;5053116;28;20108;-66
2021/09/16 03:26:30;;;;;;;3.72;1.95;;;17.50;99.90;;;;;;5049138;28;20470;-66
2021/09/16 03:28:55;;;;;;;1.83;1.63;;;17.50;99.90;;;;;;5053753;28;20028;-66
2021/09/16 03:31:21;;;;;;;1.77;1.60;;;17.50;99.90;;;;;;5054233;28;20040;-66
2021/09/16 03:33:47;;;;;;;2.08;1.60;;;17.50;99.90;;;;;;5052405;28;20087;-66
2021/09/16 03:36:12;;;;;;;3.67;1.65;;;17.50;99.90;;;;;;5047604;28;20029;-66
2021/09/16 03:38:38;;;;;;;3.53;1.88;;;17.50;99.90;;;;;;5034025;28;20036;-66
2021/09/16 03:41:04;;;;;;;1.80;1.70;;;17.50;99.90;;;;;;5038202;28;20037;-66
2021/09/16 03:43:29;;;;;;;2.85;1.67;;;17.50;99.90;;;;;;5033892;28;20042;-66
2021/09/16 03:45:55;;;;;;;2.33;1.65;;;17.50;99.90;;;;;;5034855;28;20079;-66
2021/09/16 03:48:21;;;;;;;1.70;1.50;;;17.50;99.90;;;;;;5038390;28;20463;-66
2021/09/16 03:50:47;;;;;;;3.05;1.63;;;17.50;99.90;;;;;;5033039;28;20029;-65
2021/09/16 03:53:13;;;;;;;2.53;1.77;;;17.50;99.90;;;;;;5033220;28;20704;-65
2021/09/16 03:55:39;;;;;;;2.00;1.75;;;17.50;99.90;;;;;;5036246;28;20034;-66
2021/09/16 03:58:05;;;;;;;1.60;1.40;;;17.40;99.90;;;;;;5051604;28;20485;-66
2021/09/16 04:00:31;;;;;;;4.10;1.70;;;17.40;99.90;;;;;;5051753;28;20025;-65
2021/09/16 04:03:05;;;;;;;2.15;1.52;;;17.40;99.90;;;;;;5033976;28;20434;-66
2021/09/16 04:05:30;;;;;;;3.60;1.45;;;17.40;99.90;;;;;;5049069;28;20044;-65
2021/09/16 04:07:56;;;;;;;2.35;1.63;;;17.40;99.90;;;;;;5053460;28;20029;-65
2021/09/16 04:10:22;;;;;;;3.40;1.70;;;17.40;99.90;;;;;;5052350;28;20029;-66
2021/09/16 04:12:47;;;;;;;1.33;1.23;;;17.40;99.90;;;;;;5041823;28;20044;-66
2021/09/16 04:15:13;;;;;;;3.08;2.03;;;17.40;99.90;;;;;;5050954;28;20044;-66
2021/09/16 04:17:39;;;;;;;6.65;2.67;;;17.30;99.90;;;;;;5049032;28;20083;-66
2021/09/16 04:20:05;;;;;;;6.30;2.72;;;17.40;99.90;;;;;;5051528;28;20070;-65
2021/09/16 04:22:31;;;;;;;3.42;2.28;;;17.30;99.90;;;;;;5050347;28;20032;-66
2021/09/16 04:24:56;;;;;;;4.63;2.78;;;17.40;99.90;;;;;;5051333;28;20028;-66
2021/09/16 04:27:22;;;;;;;2.45;2.10;;;17.30;99.90;;;;;;5050646;28;20033;-66
2021/09/16 04:29:48;;;;;;;3.95;2.10;;;17.30;99.90;;;;;;5051978;28;20400;-65
2021/09/16 04:32:13;;;;;;;3.53;2.30;;;17.20;99.90;;;;;;5047956;28;20091;-66
2021/09/16 04:34:39;;;;;;;2.80;2.22;;;17.30;99.90;;;;;;5048115;28;20029;-66
2021/09/16 04:37:05;;;;;;;2.40;1.98;;;17.20;99.90;;;;;;5049890;28;20025;-66
2021/09/16 04:39:31;;;;;;;2.95;2.00;;;17.20;99.90;;;;;;5051404;28;20159;-66
2021/09/16 04:41:57;;;;;;;3.20;2.20;;;17.10;99.90;;;;;;5047825;28;20053;-66
2021/09/16 04:44:22;;;;;;;4.80;2.45;;;17.10;99.90;;;;;;5049893;28;20060;-66
2021/09/16 04:46:48;;;;;;;2.95;2.47;;;17.10;99.90;;;;;;5046579;28;20782;-67
2021/09/16 04:49:14;;;;;;;3.83;2.00;;;17.20;99.90;;;;;;5050645;28;20033;-66
2021/09/16 04:51:39;;;;;;;3.75;1.90;;;17.20;99.90;;;;;;5051056;28;20096;-66
2021/09/16 04:54:06;;;;;;;2.35;1.88;;;17.20;99.90;;;;;;5050860;28;20083;-67
2021/09/16 04:56:32;;;;;;;3.78;1.67;;;17.30;99.90;;;;;;5046245;28;20033;-66
2021/09/16 04:58:57;;;;;;;2.10;1.88;;;17.30;99.90;;;;;;5050715;28;20386;-67
2021/09/16 05:01:23;;;;;;;1.88;1.65;;;17.20;99.90;;;;;;5047546;28;20040;-66
2021/09/16 05:03:48;;;;;;;1.70;1.60;;;17.20;99.90;;;;;;5051353;28;20025;-66
2021/09/16 05:06:14;;;;;;;4.43;1.95;;;17.20;99.90;;;;;;5047209;28;20029;-66
2021/09/16 05:08:42;;;;;;;2.72;1.95;;;17.10;99.90;;;;;;5051187;28;20021;-66
2021/09/16 05:11:08;;;;;;;7.28;2.28;;;17.10;99.90;;;;;;5042370;28;20032;-67
2021/09/16 05:13:34;;;;;;;2.25;1.80;;;17.10;99.90;;;;;;5038593;28;20037;-67
2021/09/16 05:16:00;;;;;;;3.92;2.00;;;17.10;99.90;;;;;;5030878;28;20021;-66
2021/09/16 05:18:25;;;;;;;3.30;1.90;;;17.10;99.90;;;;;;5032369;28;20022;-66
2021/09/16 05:20:51;;;;;;;2.88;2.00;;;17.10;99.90;;;;;;5032233;28;20030;-66
2021/09/16 05:23:17;;;;;;;3.03;2.00;;;17.10;99.90;;;;;;5038968;28;20246;-66
2021/09/16 05:25:42;;;;;;;6.55;2.67;;;17.10;99.90;;;;;;5047634;28;20030;-66
2021/09/16 05:28:08;;;;;;;2.50;1.80;;;17.10;99.90;;;;;;5031591;28;20033;-67
2021/09/16 05:30:34;;;;;;;3.22;2.05;;;17.10;99.90;;;;;;5032345;28;20374;-66
2021/09/16 05:32:59;;;;;;;3.03;2.00;;;17.10;99.90;;;;;;5037683;28;20489;-67
2021/09/16 05:35:25;;;;;;;5.30;2.58;;;17.00;99.90;;;;;;5049802;28;20025;-66
2021/09/16 05:37:50;;;;;;;4.93;2.58;;;17.00;99.90;;;;;;5052170;28;20040;-67
2021/09/16 05:40:16;;;;;;;4.50;2.97;;;17.00;99.90;;;;;;5050626;28;20061;-66
2021/09/16 05:42:42;;;;;;;3.80;2.67;;;16.90;99.90;;;;;;5032510;28;20080;-66
2021/09/16 05:45:09;;;;;;;7.35;2.83;;;16.90;99.90;;;;;;5031807;28;20079;-66
2021/09/16 05:47:34;;;;;;;5.63;2.70;;;16.90;99.90;;;;;;5032016;28;20034;-67
2021/09/16 05:50:00;;;;;;;4.38;2.50;;;16.90;99.90;;;;;;5035344;28;20101;-67
2021/09/16 05:52:27;;;;;;;6.30;3.15;;;16.90;99.90;;;;;;5032332;28;20520;-67
2021/09/16 05:54:52;;;;;;;8.38;3.58;;;16.90;99.90;;;;;;5032132;28;20029;-67
2021/09/16 05:57:18;;;;;;;5.45;2.80;;;16.80;99.90;;;;;;5048484;28;20055;-67
2021/09/16 05:59:44;;;;;;;4.10;3.70;;;16.90;99.90;;;;;;5051601;28;20031;-67
2021/09/16 06:02:09;;;;;;;5.38;3.55;;;16.90;99.90;;;;;;5050313;28;20056;-67
2021/09/16 06:04:35;;;;;;;6.22;3.72;;;16.90;99.90;;;;;;5032478;28;20048;-67
2021/09/16 06:07:03;;;;;;;5.90;3.47;;;16.90;99.90;;;;;;5035722;28;20037;-67
2021/09/16 06:09:33;;;;;;;4.50;3.33;;;16.90;99.90;;;;;;5051205;28;20097;-67
2021/09/16 06:12:02;;;;;;;7.30;4.25;;;16.90;99.90;;;;;;5046374;28;20737;-66
2021/09/16 06:14:27;;;;;;;5.38;4.05;;;16.90;99.90;;;;;;5051540;28;20040;-67
2021/09/16 06:16:53;;;;;;;9.23;3.92;;;16.90;99.90;;;;;;5037845;28;20034;-67
2021/09/16 06:19:18;;;;;;;8.00;4.03;;;16.90;99.90;;;;;;5032508;28;20017;-66
2021/09/16 06:21:44;;;;;;;7.05;3.83;;;16.90;99.90;;;;;;5039372;28;20108;-70
2021/09/16 06:24:10;;;;;;;12.05;4.90;;;16.90;99.90;;;;;;5037408;28;20030;-67
2021/09/16 06:26:35;;;;;;;14.77;4.03;;;17.00;99.90;;;;;;5030936;28;20037;-68
2021/09/16 06:29:01;;;;;;;6.43;3.58;;;17.00;99.90;;;;;;5032717;28;20029;-67
2021/09/16 06:31:27;;;;;;;7.43;4.10;;;17.10;99.90;;;;;;5038700;28;20036;-67
2021/09/16 06:33:52;;;;;;;9.15;4.55;;;17.10;99.90;;;;;;5045942;28;20462;-67
2021/09/16 06:36:18;;;;;;;7.75;4.10;;;17.20;99.90;;;;;;5052286;28;20111;-67
2021/09/16 06:38:44;;;;;;;6.90;3.53;;;17.20;99.90;;;;;;5055309;28;20029;-68
2021/09/16 06:41:09;;;;;;;9.52;3.92;;;17.20;99.90;;;;;;5052686;28;20059;-67
2021/09/16 06:43:35;;;;;;;9.70;3.80;;;17.20;99.90;;;;;;5055081;28;20049;-66
2021/09/16 06:46:01;;;;;;;7.65;3.15;;;17.30;99.90;;;;;;5039841;28;20037;-66
2021/09/16 06:48:26;;;;;;;5.05;3.45;;;17.20;99.90;;;;;;5037423;28;20033;-66
2021/09/16 06:50:52;;;;;;;5.97;3.80;;;17.30;99.90;;;;;;5048003;28;20360;-66
2021/09/16 06:53:18;;;;;;;6.90;3.97;;;17.30;99.90;;;;;;5041519;28;20611;-66
2021/09/16 06:55:43;;;;;;;5.85;3.40;;;17.30;99.90;;;;;;5055070;28;20072;-67
2021/09/16 06:58:09;;;;;;;5.22;3.55;;;17.30;99.90;;;;;;5053899;28;20033;-69
2021/09/16 07:00:34;;;;;;;7.80;3.83;;;17.30;99.90;;;;;;5054956;28;20029;-70
2021/09/16 07:03:00;;;;;;;9.30;4.53;;;17.30;99.90;;;;;;5055306;28;20032;-68
2021/09/16 07:05:26;;;;;;;5.93;3.85;;;17.30;99.90;;;;;;5054109;28;20075;-68
2021/09/16 07:07:52;;;;;;;6.90;3.92;;;17.30;99.90;;;;;;5052535;28;20044;-69
2021/09/16 07:10:18;;;;;;;8.77;4.45;;;17.30;99.90;;;;;;5058710;28;20093;-69
2021/09/16 07:12:44;;;;;;;6.40;4.07;;;17.40;99.90;;;;;;5046556;28;20401;-70
2021/09/16 07:15:10;;;;;;;8.90;4.70;;;17.40;99.90;;;;;;5054719;28;20029;-70
2021/09/16 07:17:35;;;;;;;5.18;4.10;;;17.50;99.90;;;;;;5050140;28;20040;-71
2021/09/16 07:20:01;;;;;;;8.18;3.75;;;17.50;99.90;;;;;;5052057;28;20033;-67
2021/09/16 07:22:27;;;;;;;8.73;4.00;;;17.60;99.90;;;;;;5036037;28;20349;-71
2021/09/16 07:24:52;;;;;;;5.70;4.07;;;17.50;99.90;;;;;;5032953;28;20029;-68
2021/09/16 07:27:18;;;;;;;7.25;4.07;;;17.60;99.90;;;;;;5049966;28;20057;-67
2021/09/16 07:29:44;;;;;;;7.18;4.15;;;17.60;99.90;;;;;;5054052;28;20033;-66
2021/09/16 07:32:09;;;;;;;7.55;4.38;;;17.50;99.90;;;;;;5053371;28;20021;-65
2021/09/16 07:34:35;;;;;;;8.93;5.32;;;17.60;99.90;;;;;;5054184;28;20032;-66
2021/09/16 07:37:01;;;;;;;8.05;4.97;;;17.60;99.90;;;;;;5052693;28;20485;-65
2021/09/16 07:39:27;;;;;;;7.70;4.70;;;17.50;99.90;;;;;;5038773;28;20029;-66
2021/09/16 07:41:52;;;;;;;10.25;4.72;;;17.50;99.90;;;;;;5059331;28;20065;-66
2021/09/16 07:44:18;;;;;;;7.05;5.00;;;17.40;99.90;;;;;;5041229;28;20038;-66
2021/09/16 07:46:45;;;;;;;9.57;5.03;;;17.40;99.90;;;;;;5052176;28;20033;-66
2021/09/16 07:49:10;;;;;;;7.65;4.72;;;17.40;99.90;;;;;;5054283;28;20029;-66
2021/09/16 07:51:36;;;;;;;6.90;5.60;;;17.40;99.90;;;;;;5053587;28;20075;-66
2021/09/16 07:54:02;;;;;;;11.85;8.90;;;17.50;99.90;;;;;;5048926;28;20108;-65
2021/09/16 07:56:27;;;;;;;17.90;11.30;;;17.40;99.90;;;;;;5042514;28;20103;-66
2021/09/16 07:58:53;;;;;;;19.60;10.95;;;17.30;99.90;;;;;;5042593;28;20422;-67
2021/09/16 08:01:19;;;;;;;14.50;10.18;;;17.20;99.90;;;;;;5033128;28;20189;-66
2021/09/16 08:03:45;;;;;;;15.13;9.75;;;17.10;99.90;;;;;;5033929;28;20033;-66
2021/09/16 08:06:10;;;;;;;14.02;9.30;;;17.00;99.90;;;;;;5038956;28;20033;-65
2021/09/16 08:08:36;;;;;;;13.30;8.88;;;16.90;99.90;;;;;;5052991;28;20048;-66
2021/09/16 08:11:02;;;;;;;12.88;9.20;;;16.90;99.90;;;;;;5051805;28;20124;-65
2021/09/16 08:13:28;;;;;;;12.23;8.65;;;16.80;99.90;;;;;;5052510;28;20037;-66
2021/09/16 08:15:54;;;;;;;11.20;8.18;;;16.80;99.90;;;;;;5048987;28;20033;-66
2021/09/16 08:18:20;;;;;;;11.20;7.28;;;16.70;99.90;;;;;;5032377;28;20033;-66
2021/09/16 08:20:50;;;;;;;7.57;6.00;;;16.70;99.90;;;;;;5050122;28;20024;-66
2021/09/16 08:23:17;;;;;;;8.25;5.22;;;16.70;99.90;;;;;;5052144;28;20477;-66
2021/09/16 08:25:43;;;;;;;6.88;5.43;;;16.70;99.90;;;;;;5051180;28;20168;-66
2021/09/16 08:28:09;;;;;;;5.65;4.60;;;16.60;99.90;;;;;;5052102;28;20410;-66
2021/09/16 08:30:35;;;;;;;5.55;4.47;;;16.60;99.90;;;;;;5051347;28;20032;-67
2021/09/16 08:33:01;;;;;;;4.57;3.78;;;16.60;99.90;;;;;;5052794;28;20025;-65
2021/09/16 08:35:27;;;;;;;4.05;3.30;;;16.60;99.90;;;;;;5052411;28;20033;-66
2021/09/16 08:37:53;;;;;;;4.10;3.63;;;16.50;99.90;;;;;;5033278;28;20467;-66
2021/09/16 08:40:21;;;;;;;4.22;3.83;;;;;;;;;;5048649;28;20043;-65
2021/09/16 08:42:47;;;;;;;6.22;4.32;;;16.30;99.90;;;;;;5052077;28;20080;-66
2021/09/16 08:45:15;;;;;;;4.70;3.20;;;16.50;99.90;;;;;;5047423;28;20057;-66
2021/09/16 08:47:46;;;;;;;2.97;2.67;;;16.50;99.90;;;;;;5049968;28;20037;-66
2021/09/16 08:50:14;;;;;;;3.20;2.40;;;16.50;99.90;;;;;;5035522;28;20033;-66
2021/09/16 08:52:42;;;;;;;3.47;2.50;;;16.70;99.90;;;;;;5051669;28;20035;-66
2021/09/16 08:55:10;;;;;;;2.53;2.05;;;16.50;99.90;;;;;;5051763;28;20030;-66
2021/09/16 08:57:38;;;;;;;3.13;2.58;;;16.40;99.90;;;;;;5035553;28;20478;-67
2021/09/16 09:00:10;;;;;;;3.30;1.95;;;16.50;99.90;;;;;;5042418;28;20061;-65
2021/09/16 09:02:37;;;;;;;4.70;2.47;;;16.50;99.90;;;;;;5051018;28;20037;-66
2021/09/16 09:05:08;;;;;;;4.05;3.30;;;16.50;99.90;;;;;;5052063;28;20025;-65
2021/09/16 09:07:38;;;;;;;4.25;3.85;;;16.50;99.90;;;;;;5048565;28;20116;-67
2021/09/16 09:10:05;;;;;;;5.82;5.32;;;16.50;99.90;;;;;;5056771;28;20078;-65
2021/09/16 09:12:37;;;;;;;6.90;6.18;;;16.50;99.90;;;;;;5033522;28;20084;-67
2021/09/16 09:15:06;;;;;;;7.18;6.47;;;16.50;99.90;;;;;;5033149;28;20036;-65
2021/09/16 09:17:33;;;;;;;9.35;8.35;;;16.40;99.90;;;;;;5048232;28;20025;-66
2021/09/16 09:20:10;;;;;;;8.95;7.93;;;16.40;99.90;;;;;;5047279;28;20375;-66
2021/09/16 09:22:39;;;;;;;12.98;10.25;;;16.30;99.90;;;;;;5032653;28;20029;-66
2021/09/16 09:25:13;;;;;;;14.15;11.05;;;16.30;99.90;;;;;;5031625;28;20025;-65
2021/09/16 09:27:50;;;;;;;12.70;10.98;;;16.30;99.90;;;;;;5040168;28;20037;-66
2021/09/16 09:30:19;;;;;;;14.32;11.82;;;16.20;99.90;;;;;;5051131;28;20439;-66
2021/09/16 09:33:05;;;;;;;14.75;12.32;;;16.10;99.90;;;;;;5032198;28;20037;-66
2021/09/16 09:35:39;;;;;;;15.35;13.60;;;16.10;99.90;;;;;;5032171;28;20089;-66
2021/09/16 09:38:18;;;;;;;14.85;12.27;;;16.10;99.90;;;;;;5032187;28;20068;-65
2021/09/16 09:40:48;;;;;;;16.60;11.97;;;16.10;99.90;;;;;;5064688;28;20036;-66
2021/09/16 09:43:30;;;;;;;18.70;12.95;;;16.20;99.90;;;;;;5071235;28;20061;-67
2021/09/16 09:45:57;;;;;;;14.73;11.95;;;16.10;99.90;;;;;;5039038;28;20087;-65
2021/09/16 09:48:23;;;;;;;15.35;12.35;;;16.00;99.90;;;;;;5035749;28;20219;-65
2021/09/16 09:50:52;;;;;;;14.40;11.68;;;16.00;99.90;;;;;;5046977;28;20501;-66
2021/09/16 09:53:17;;;;;;;15.55;12.82;;;16.00;99.90;;;;;;5031494;28;20080;-66
2021/09/16 09:55:43;;;;;;;16.05;12.20;;;16.00;99.90;;;;;;5032004;28;20029;-67
2021/09/16 09:58:09;;;;;;;10.55;8.90;;;16.00;99.90;;;;;;5030552;28;20026;-65
2021/09/16 10:00:36;;;;;;;13.05;9.00;;;16.10;99.90;;;;;;5032114;28;20418;-66
2021/09/16 10:03:02;;;;;;;10.93;9.32;;;16.00;99.90;;;;;;5030621;28;20017;-65
2021/09/16 10:05:35;;;;;;;10.85;9.35;;;16.10;99.90;;;;;;5038229;28;20098;-66
2021/09/16 10:08:13;;;;;;;11.38;9.25;;;16.10;99.90;;;;;;5032686;28;20061;-66
2021/09/16 10:10:40;;;;;;;14.25;9.75;;;16.00;99.90;;;;;;5042657;28;20051;-66
2021/09/16 10:13:06;;;;;;;12.30;10.52;;;16.00;99.90;;;;;;5051136;28;20139;-65
2021/09/16 10:15:33;;;;;;;14.32;11.93;;;16.00;99.90;;;;;;5048147;28;20032;-65
2021/09/16 10:17:59;;;;;;;15.18;12.30;;;16.10;99.90;;;;;;5049702;28;20485;-67
2021/09/16 10:20:28;;;;;;;19.70;14.57;;;16.00;99.90;;;;;;5048951;28;20021;-66
2021/09/16 10:22:57;;;;;;;19.55;14.25;;;15.90;99.90;;;;;;5031512;28;20033;-66
2021/09/16 10:25:25;;;;;;;18.73;14.68;;;15.90;99.90;;;;;;5046930;28;20628;-66
2021/09/16 10:28:00;;;;;;;17.90;13.20;;;15.80;99.90;;;;;;5042112;28;20021;-66
2021/09/16 10:30:25;;;;;;;18.77;13.38;;;15.80;99.90;;;;;;5044398;28;20025;-65
2021/09/16 10:33:07;;;;;;;18.55;13.93;;;15.80;99.90;;;;;;5051011;28;20036;-66
2021/09/16 10:35:35;;;;;;;17.30;13.13;;;15.90;99.90;;;;;;5051441;28;20025;-67
2021/09/16 10:38:17;;;;;;;15.63;12.77;;;15.90;99.90;;;;;;5050691;28;20148;-66
2021/09/16 10:40:43;;;;;;;20.58;13.73;;;16.00;99.90;;;;;;5058376;28;20164;-67
2021/09/16 10:43:08;;;;;;;16.75;12.45;;;16.00;99.90;;;;;;5048613;28;20138;-66
2021/09/16 10:45:38;;;;;;;18.70;12.80;;;16.00;99.90;;;;;;5041740;28;20378;-66
2021/09/16 10:48:13;;;;;;;15.37;11.83;;;16.00;99.90;;;;;;5032711;28;20044;-66
2021/09/16 10:50:48;;;;;;;16.90;11.45;;;16.00;99.90;;;;;;5046594;28;20033;-67
2021/09/16 10:53:46;;;;;;;17.48;12.88;;;16.10;99.90;;;;;;5041147;28;20036;-67
2021/09/16 10:57:06;;;;;;;14.02;12.52;;;16.10;99.90;;;;;;5042910;28;20025;-67
2021/09/16 10:59:50;;;;;;;25.77;15.20;;;16.10;99.90;;;;;;5008198;28;20038;-67
2021/09/16 11:02:24;;;;;;;20.00;14.55;;;16.20;99.90;;;;;;5046888;28;20044;-67
2021/09/16 11:04:58;;;;;;;18.33;13.65;;;16.30;99.90;;;;;;5030662;28;20040;-67
2021/09/16 11:07:33;;;;;;;19.20;14.77;;;16.30;99.90;;;;;;5030381;28;20272;-67
2021/09/16 11:10:20;;;;;;;18.13;13.77;;;16.30;99.90;;;;;;5042399;28;20166;-67
2021/09/16 11:12:58;;;;;;;18.23;14.52;;;16.30;99.90;;;;;;5042925;28;20026;-68
2021/09/16 11:15:29;;;;;;;19.60;15.05;;;16.40;99.90;;;;;;5032773;28;20037;-67
2021/09/16 11:18:06;;;;;;;18.00;15.18;;;16.40;99.90;;;;;;5034446;28;20112;-67
2021/09/16 11:20:33;;;;;;;21.33;15.23;;;16.30;99.90;;;;;;5052436;28;20032;-68
2021/09/16 11:22:59;;;;;;;19.75;15.95;;;16.40;99.90;;;;;;5054582;28;20527;-68
2021/09/16 11:25:25;;;;;;;25.08;16.42;;;16.30;99.90;;;;;;5052656;28;20041;-67
2021/09/16 11:27:55;;;;;;;18.58;15.40;;;16.30;99.90;;;;;;5054102;28;20116;-68
2021/09/16 11:30:22;;;;;;;21.00;15.77;;;16.20;99.90;;;;;;5052801;28;20075;-67
2021/09/16 11:32:47;;;;;;;18.55;14.00;;;16.30;99.90;;;;;;5053632;28;20810;-67
2021/09/16 11:35:15;;;;;;;18.23;13.65;;;16.30;99.90;;;;;;5053175;28;20032;-67
2021/09/16 11:37:52;;;;;;;18.77;14.18;;;16.30;99.90;;;;;;5049253;28;20488;-67
2021/09/16 11:40:18;;;;;;;18.85;14.55;;;16.30;99.90;;;;;;5045913;28;20033;-67
2021/09/16 11:42:47;;;;;;;17.70;12.98;;;16.40;99.90;;;;;;5033710;28;20509;-67
2021/09/16 11:45:28;;;;;;;19.60;14.60;;;16.40;99.90;;;;;;5041547;28;20186;-67
2021/09/16 11:48:14;;;;;;;19.63;13.80;;;16.40;99.90;;;;;;5053829;28;20040;-67
2021/09/16 11:50:44;;;;;;;22.23;15.20;;;16.50;99.90;;;;;;5052393;28;20025;-67
2021/09/16 11:53:12;;;;;;;;;;;16.60;99.90;;;;;;5053365;28;20025;-67
2021/09/16 11:55:40;;;;;;;21.65;15.88;;;16.60;99.90;;;;;;5053515;28;19908;-67
2021/09/16 11:58:17;;;;;;;20.23;15.30;;;16.60;99.90;;;;;;5046616;28;20033;-66
2021/09/16 12:00:42;;;;;;;22.92;16.25;;;16.70;99.90;;;;;;5036589;28;20443;-67
2021/09/16 12:03:10;;;;;;;19.13;14.18;;;16.80;99.90;;;;;;5052954;28;20029;-66
2021/09/16 12:05:41;;;;;;;22.13;15.98;;;16.90;99.90;;;;;;5053447;28;20036;-67
2021/09/16 12:08:18;;;;;;;23.13;16.00;;;16.90;99.90;;;;;;5049437;28;20033;-66
2021/09/16 12:10:54;;;;;;;19.90;14.18;;;17.00;99.90;;;;;;5047798;28;20029;-67
2021/09/16 12:13:22;;;;;;;20.50;14.23;;;17.10;99.90;;;;;;5049687;28;20474;-67
2021/09/16 12:15:51;;;;;;;23.85;15.25;;;17.10;99.90;;;;;;5053173;28;20176;-67
2021/09/16 12:18:17;;;;;;;25.52;16.20;;;17.20;99.90;;;;;;5052706;28;20025;-67
2021/09/16 12:20:46;;;;;;;19.98;15.70;;;17.30;99.90;;;;;;5049765;28;20470;-68
2021/09/16 12:23:14;;;;;;;18.90;15.90;;;17.30;99.90;;;;;;5051826;28;20104;-67
2021/09/16 12:25:57;;;;;;;18.08;15.48;;;17.30;99.90;;;;;;5035686;28;20553;-67
2021/09/16 12:28:24;;;;;;;18.00;15.82;;;17.20;99.90;;;;;;5052681;28;20033;-67
2021/09/16 12:30:50;;;;;;;23.50;17.88;;;17.10;99.90;;;;;;5048614;28;20164;-67
2021/09/16 12:33:36;;;;;;;21.38;16.63;;;17.10;99.90;;;;;;5032662;28;20057;-67
2021/09/16 12:36:07;;;;;;;23.88;17.38;;;17.00;99.90;;;;;;5033730;28;20025;-67
2021/09/16 12:38:54;;;;;;;25.73;18.55;;;17.00;99.90;;;;;;5052890;28;20029;-67
2021/09/16 12:41:39;;;;;;;28.50;19.05;;;17.00;99.90;;;;;;5056165;28;20036;-67
2021/09/16 12:44:08;;;;;;;26.27;19.83;;;17.00;99.90;;;;;;5049473;28;20065;-67
2021/09/16 12:47:06;;;;;;;28.67;19.27;;;16.90;99.90;;;;;;5042222;28;20134;-67